sensor_id;sensor_type;location;lat;lon;timestamp;P1;durP1;ratioP1;P2;durP2;ratioP2
47089;SDS011;32840;52.516;13.294;2022-11-15T00:00:15;52.38;;;32.40;;
47089;SDS011;32840;52.516;13.294;2022-11-15T00:03:00;52.10;;;33.20;;
47089;SDS011;32840;52.516;13.294;2022-11-15T00:05:45;51.67;;;32.78;;
47089;SDS011;32840;52.516;13.294;2022-11-15T00:08:31;53.22;;;34.67;;
47089;SDS011;32840;52.516;13.294;2022-11-15T00:11:17;51.83;;;33.10;;
47089;SDS011;32840;52.516;13.294;2022-11-15T00:14:01;49.85;;;32.72;;
47089;SDS011;32840;52.516;13.294;2022-11-15T00:16:47;48.47;;;31.98;;
47089;SDS011;32840;52.516;13.294;2022-11-15T00:19:32;53.58;;;34.60;;
47089;SDS011;32840;52.516;13.294;2022-11-15T00:22:17;53.65;;;33.65;;
47089;SDS011;32840;52.516;13.294;2022-11-15T00:25:02;52.22;;;34.70;;
47089;SDS011;32840;52.516;13.294;2022-11-15T00:27:47;55.55;;;33.92;;
47089;SDS011;32840;52.516;13.294;2022-11-15T00:30:32;53.75;;;34.22;;
47089;SDS011;32840;52.516;13.294;2022-11-15T00:33:17;54.17;;;34.03;;
47089;SDS011;32840;52.516;13.294;2022-11-15T00:36:02;56.10;;;35.67;;
47089;SDS011;32840;52.516;13.294;2022-11-15T00:38:49;55.90;;;34.25;;
47089;SDS011;32840;52.516;13.294;2022-11-15T00:41:34;56.85;;;36.10;;
47089;SDS011;32840;52.516;13.294;2022-11-15T00:44:19;59.33;;;36.47;;
47089;SDS011;32840;52.516;13.294;2022-11-15T00:47:04;57.53;;;36.95;;
47089;SDS011;32840;52.516;13.294;2022-11-15T00:49:48;53.97;;;34.83;;
47089;SDS011;32840;52.516;13.294;2022-11-15T00:52:33;56.20;;;35.63;;
47089;SDS011;32840;52.516;13.294;2022-11-15T00:55:18;56.15;;;35.53;;
47089;SDS011;32840;52.516;13.294;2022-11-15T00:58:03;52.28;;;34.88;;
47089;SDS011;32840;52.516;13.294;2022-11-15T01:00:48;56.33;;;36.22;;
47089;SDS011;32840;52.516;13.294;2022-11-15T01:03:34;54.97;;;35.65;;
47089;SDS011;32840;52.516;13.294;2022-11-15T01:06:19;54.75;;;34.05;;
47089;SDS011;32840;52.516;13.294;2022-11-15T01:09:04;47.85;;;32.28;;
47089;SDS011;32840;52.516;13.294;2022-11-15T01:11:49;56.83;;;34.95;;
47089;SDS011;32840;52.516;13.294;2022-11-15T01:14:34;51.05;;;32.92;;
47089;SDS011;32840;52.516;13.294;2022-11-15T01:17:19;53.33;;;34.10;;
47089;SDS011;32840;52.516;13.294;2022-11-15T01:20:04;52.00;;;33.00;;
47089;SDS011;32840;52.516;13.294;2022-11-15T01:22:49;50.00;;;33.58;;
47089;SDS011;32840;52.516;13.294;2022-11-15T01:25:34;52.17;;;33.80;;
47089;SDS011;32840;52.516;13.294;2022-11-15T01:28:18;51.65;;;32.67;;
47089;SDS011;32840;52.516;13.294;2022-11-15T01:31:05;51.58;;;32.90;;
47089;SDS011;32840;52.516;13.294;2022-11-15T01:33:51;49.88;;;32.53;;
47089;SDS011;32840;52.516;13.294;2022-11-15T01:36:36;52.78;;;34.13;;
47089;SDS011;32840;52.516;13.294;2022-11-15T01:39:21;53.72;;;34.78;;
47089;SDS011;32840;52.516;13.294;2022-11-15T01:42:09;56.13;;;33.95;;
47089;SDS011;32840;52.516;13.294;2022-11-15T01:44:57;53.63;;;33.38;;
47089;SDS011;32840;52.516;13.294;2022-11-15T01:47:43;56.55;;;33.25;;
47089;SDS011;32840;52.516;13.294;2022-11-15T01:50:33;54.80;;;33.55;;
47089;SDS011;32840;52.516;13.294;2022-11-15T01:53:18;55.08;;;33.63;;
47089;SDS011;32840;52.516;13.294;2022-11-15T01:56:06;51.78;;;32.45;;
47089;SDS011;32840;52.516;13.294;2022-11-15T01:59:01;50.92;;;31.38;;
47089;SDS011;32840;52.516;13.294;2022-11-15T02:01:48;53.17;;;33.55;;
47089;SDS011;32840;52.516;13.294;2022-11-15T02:04:39;52.30;;;33.55;;
47089;SDS011;32840;52.516;13.294;2022-11-15T02:07:26;52.78;;;32.40;;
47089;SDS011;32840;52.516;13.294;2022-11-15T02:10:17;49.72;;;31.60;;
47089;SDS011;32840;52.516;13.294;2022-11-15T02:13:04;51.40;;;33.05;;
47089;SDS011;32840;52.516;13.294;2022-11-15T02:15:52;54.92;;;33.35;;
47089;SDS011;32840;52.516;13.294;2022-11-15T02:25:49;55.72;;;34.40;;
47089;SDS011;32840;52.516;13.294;2022-11-15T02:41:04;48.53;;;32.20;;
47089;SDS011;32840;52.516;13.294;2022-11-15T02:44:03;55.85;;;33.78;;
47089;SDS011;32840;52.516;13.294;2022-11-15T02:47:00;56.33;;;34.60;;
47089;SDS011;32840;52.516;13.294;2022-11-15T02:49:59;54.35;;;34.70;;
47089;SDS011;32840;52.516;13.294;2022-11-15T02:52:46;53.17;;;32.22;;
47089;SDS011;32840;52.516;13.294;2022-11-15T03:01:20;53.20;;;33.72;;
47089;SDS011;32840;52.516;13.294;2022-11-15T03:07:50;57.40;;;34.22;;
47089;SDS011;32840;52.516;13.294;2022-11-15T03:11:10;58.03;;;33.25;;
47089;SDS011;32840;52.516;13.294;2022-11-15T03:13:58;53.30;;;32.72;;
47089;SDS011;32840;52.516;13.294;2022-11-15T03:20:11;50.15;;;31.65;;
47089;SDS011;32840;52.516;13.294;2022-11-15T03:23:09;56.33;;;34.70;;
47089;SDS011;32840;52.516;13.294;2022-11-15T03:25:54;49.15;;;32.05;;
47089;SDS011;32840;52.516;13.294;2022-11-15T03:28:50;50.83;;;30.92;;
47089;SDS011;32840;52.516;13.294;2022-11-15T03:31:51;55.80;;;35.08;;
47089;SDS011;32840;52.516;13.294;2022-11-15T03:34:52;58.67;;;34.78;;
47089;SDS011;32840;52.516;13.294;2022-11-15T03:40:36;56.75;;;35.50;;
47089;SDS011;32840;52.516;13.294;2022-11-15T03:43:35;52.00;;;32.70;;
47089;SDS011;32840;52.516;13.294;2022-11-15T03:46:47;54.03;;;33.45;;
47089;SDS011;32840;52.516;13.294;2022-11-15T03:49:46;51.15;;;32.67;;
47089;SDS011;32840;52.516;13.294;2022-11-15T03:52:36;48.80;;;30.92;;
47089;SDS011;32840;52.516;13.294;2022-11-15T03:55:21;51.53;;;31.20;;
47089;SDS011;32840;52.516;13.294;2022-11-15T03:58:06;50.55;;;31.30;;
47089;SDS011;32840;52.516;13.294;2022-11-15T04:00:52;55.05;;;33.22;;
47089;SDS011;32840;52.516;13.294;2022-11-15T04:03:36;50.45;;;32.67;;
47089;SDS011;32840;52.516;13.294;2022-11-15T04:06:21;50.53;;;32.22;;
47089;SDS011;32840;52.516;13.294;2022-11-15T04:09:06;94.75;;;49.60;;
47089;SDS011;32840;52.516;13.294;2022-11-15T04:11:51;53.88;;;33.80;;
47089;SDS011;32840;52.516;13.294;2022-11-15T04:14:36;74.28;;;41.83;;
47089;SDS011;32840;52.516;13.294;2022-11-15T04:17:21;54.30;;;34.65;;
47089;SDS011;32840;52.516;13.294;2022-11-15T04:23:20;52.90;;;33.58;;
47089;SDS011;32840;52.516;13.294;2022-11-15T04:26:24;51.30;;;32.65;;
47089;SDS011;32840;52.516;13.294;2022-11-15T04:29:09;52.45;;;33.33;;
47089;SDS011;32840;52.516;13.294;2022-11-15T04:32:18;50.00;;;32.72;;
47089;SDS011;32840;52.516;13.294;2022-11-15T04:35:03;55.40;;;33.47;;
47089;SDS011;32840;52.516;13.294;2022-11-15T04:37:48;53.90;;;32.88;;
47089;SDS011;32840;52.516;13.294;2022-11-15T04:40:32;49.92;;;31.20;;
47089;SDS011;32840;52.516;13.294;2022-11-15T04:43:17;49.22;;;31.40;;
47089;SDS011;32840;52.516;13.294;2022-11-15T04:46:02;47.47;;;31.95;;
47089;SDS011;32840;52.516;13.294;2022-11-15T04:48:47;50.72;;;31.50;;
47089;SDS011;32840;52.516;13.294;2022-11-15T04:51:32;52.00;;;30.83;;
47089;SDS011;32840;52.516;13.294;2022-11-15T04:54:17;52.95;;;32.60;;
47089;SDS011;32840;52.516;13.294;2022-11-15T04:57:02;49.45;;;30.38;;
47089;SDS011;32840;52.516;13.294;2022-11-15T04:59:47;47.58;;;29.27;;
47089;SDS011;32840;52.516;13.294;2022-11-15T05:02:32;48.78;;;30.58;;
47089;SDS011;32840;52.516;13.294;2022-11-15T05:05:35;46.97;;;30.02;;
47089;SDS011;32840;52.516;13.294;2022-11-15T05:08:20;52.40;;;31.48;;
47089;SDS011;32840;52.516;13.294;2022-11-15T05:11:05;52.17;;;32.60;;
47089;SDS011;32840;52.516;13.294;2022-11-15T05:13:50;47.13;;;29.73;;
47089;SDS011;32840;52.516;13.294;2022-11-15T05:16:35;48.85;;;28.77;;
47089;SDS011;32840;52.516;13.294;2022-11-15T05:19:20;46.85;;;30.52;;
47089;SDS011;32840;52.516;13.294;2022-11-15T05:22:05;46.65;;;30.00;;
47089;SDS011;32840;52.516;13.294;2022-11-15T05:24:50;52.55;;;30.80;;
47089;SDS011;32840;52.516;13.294;2022-11-15T05:27:35;49.83;;;31.67;;
47089;SDS011;32840;52.516;13.294;2022-11-15T05:30:20;52.15;;;31.75;;
47089;SDS011;32840;52.516;13.294;2022-11-15T05:33:05;46.65;;;30.02;;
47089;SDS011;32840;52.516;13.294;2022-11-15T05:35:50;50.42;;;29.38;;
47089;SDS011;32840;52.516;13.294;2022-11-15T05:38:42;47.10;;;29.73;;
47089;SDS011;32840;52.516;13.294;2022-11-15T05:41:29;50.85;;;31.52;;
47089;SDS011;32840;52.516;13.294;2022-11-15T05:44:18;44.53;;;28.70;;
47089;SDS011;32840;52.516;13.294;2022-11-15T05:47:06;48.72;;;30.90;;
47089;SDS011;32840;52.516;13.294;2022-11-15T05:49:55;48.60;;;29.98;;
47089;SDS011;32840;52.516;13.294;2022-11-15T05:52:40;49.95;;;30.35;;
47089;SDS011;32840;52.516;13.294;2022-11-15T05:55:26;46.63;;;29.95;;
47089;SDS011;32840;52.516;13.294;2022-11-15T05:58:11;48.83;;;30.02;;
47089;SDS011;32840;52.516;13.294;2022-11-15T06:00:56;46.40;;;29.80;;
47089;SDS011;32840;52.516;13.294;2022-11-15T06:03:41;45.88;;;28.02;;
47089;SDS011;32840;52.516;13.294;2022-11-15T06:06:27;45.13;;;29.63;;
47089;SDS011;32840;52.516;13.294;2022-11-15T06:09:12;47.42;;;30.90;;
47089;SDS011;32840;52.516;13.294;2022-11-15T06:11:57;48.10;;;31.23;;
47089;SDS011;32840;52.516;13.294;2022-11-15T06:14:42;47.83;;;29.67;;
47089;SDS011;32840;52.516;13.294;2022-11-15T06:17:27;49.67;;;29.15;;
47089;SDS011;32840;52.516;13.294;2022-11-15T06:20:12;50.95;;;30.70;;
47089;SDS011;32840;52.516;13.294;2022-11-15T06:23:02;50.78;;;30.55;;
47089;SDS011;32840;52.516;13.294;2022-11-15T06:25:48;53.47;;;33.30;;
47089;SDS011;32840;52.516;13.294;2022-11-15T06:28:33;50.67;;;30.85;;
47089;SDS011;32840;52.516;13.294;2022-11-15T06:31:18;47.65;;;29.98;;
47089;SDS011;32840;52.516;13.294;2022-11-15T06:34:03;48.83;;;31.27;;
47089;SDS011;32840;52.516;13.294;2022-11-15T06:36:48;49.67;;;30.13;;
47089;SDS011;32840;52.516;13.294;2022-11-15T06:39:32;49.60;;;30.50;;
47089;SDS011;32840;52.516;13.294;2022-11-15T06:42:18;49.83;;;29.48;;
47089;SDS011;32840;52.516;13.294;2022-11-15T06:45:03;47.88;;;29.95;;
47089;SDS011;32840;52.516;13.294;2022-11-15T06:47:48;48.58;;;29.70;;
47089;SDS011;32840;52.516;13.294;2022-11-15T06:50:33;52.17;;;31.55;;
47089;SDS011;32840;52.516;13.294;2022-11-15T06:53:18;47.85;;;29.45;;
47089;SDS011;32840;52.516;13.294;2022-11-15T06:56:04;48.78;;;29.13;;
47089;SDS011;32840;52.516;13.294;2022-11-15T06:58:50;49.90;;;28.77;;
47089;SDS011;32840;52.516;13.294;2022-11-15T07:01:35;49.05;;;30.05;;
47089;SDS011;32840;52.516;13.294;2022-11-15T07:04:20;49.88;;;30.13;;
47089;SDS011;32840;52.516;13.294;2022-11-15T07:07:05;51.65;;;30.10;;
47089;SDS011;32840;52.516;13.294;2022-11-15T07:09:50;49.55;;;29.30;;
47089;SDS011;32840;52.516;13.294;2022-11-15T07:12:35;46.22;;;29.63;;
47089;SDS011;32840;52.516;13.294;2022-11-15T07:15:21;47.40;;;29.52;;
47089;SDS011;32840;52.516;13.294;2022-11-15T07:18:08;49.88;;;27.55;;
47089;SDS011;32840;52.516;13.294;2022-11-15T07:20:53;48.80;;;29.35;;
47089;SDS011;32840;52.516;13.294;2022-11-15T07:23:38;47.63;;;30.30;;
47089;SDS011;32840;52.516;13.294;2022-11-15T07:26:24;46.50;;;29.80;;
47089;SDS011;32840;52.516;13.294;2022-11-15T07:29:09;48.28;;;29.67;;
47089;SDS011;32840;52.516;13.294;2022-11-15T07:31:53;45.53;;;29.27;;
47089;SDS011;32840;52.516;13.294;2022-11-15T07:34:39;48.85;;;30.17;;
47089;SDS011;32840;52.516;13.294;2022-11-15T07:37:24;48.50;;;29.70;;
47089;SDS011;32840;52.516;13.294;2022-11-15T07:40:09;52.97;;;33.42;;
47089;SDS011;32840;52.516;13.294;2022-11-15T07:42:58;46.78;;;30.70;;
47089;SDS011;32840;52.516;13.294;2022-11-15T07:45:47;55.08;;;31.40;;
47089;SDS011;32840;52.516;13.294;2022-11-15T07:48:32;46.40;;;29.65;;
47089;SDS011;32840;52.516;13.294;2022-11-15T07:51:17;48.38;;;29.58;;
47089;SDS011;32840;52.516;13.294;2022-11-15T07:54:03;45.22;;;29.42;;
47089;SDS011;32840;52.516;13.294;2022-11-15T07:56:48;49.60;;;30.08;;
47089;SDS011;32840;52.516;13.294;2022-11-15T07:59:33;48.63;;;29.10;;
47089;SDS011;32840;52.516;13.294;2022-11-15T08:02:18;45.35;;;28.38;;
47089;SDS011;32840;52.516;13.294;2022-11-15T08:05:04;45.55;;;29.33;;
47089;SDS011;32840;52.516;13.294;2022-11-15T08:07:48;44.65;;;27.58;;
47089;SDS011;32840;52.516;13.294;2022-11-15T08:10:34;45.35;;;28.25;;
47089;SDS011;32840;52.516;13.294;2022-11-15T08:13:19;45.13;;;28.58;;
47089;SDS011;32840;52.516;13.294;2022-11-15T08:16:05;43.30;;;27.90;;
47089;SDS011;32840;52.516;13.294;2022-11-15T08:18:50;46.78;;;29.65;;
47089;SDS011;32840;52.516;13.294;2022-11-15T08:21:35;45.55;;;28.45;;
47089;SDS011;32840;52.516;13.294;2022-11-15T08:24:21;44.63;;;26.83;;
47089;SDS011;32840;52.516;13.294;2022-11-15T08:27:06;46.10;;;28.67;;
47089;SDS011;32840;52.516;13.294;2022-11-15T08:29:58;43.47;;;27.27;;
47089;SDS011;32840;52.516;13.294;2022-11-15T08:32:43;44.55;;;29.00;;
47089;SDS011;32840;52.516;13.294;2022-11-15T08:35:28;47.13;;;28.67;;
47089;SDS011;32840;52.516;13.294;2022-11-15T08:38:13;42.83;;;26.60;;
47089;SDS011;32840;52.516;13.294;2022-11-15T08:41:02;46.10;;;30.20;;
47089;SDS011;32840;52.516;13.294;2022-11-15T08:43:48;47.00;;;29.60;;
47089;SDS011;32840;52.516;13.294;2022-11-15T08:46:33;47.72;;;29.30;;
47089;SDS011;32840;52.516;13.294;2022-11-15T08:49:18;41.78;;;26.80;;
47089;SDS011;32840;52.516;13.294;2022-11-15T08:52:03;41.83;;;28.42;;
47089;SDS011;32840;52.516;13.294;2022-11-15T08:54:48;45.15;;;29.70;;
47089;SDS011;32840;52.516;13.294;2022-11-15T08:57:33;54.03;;;32.75;;
47089;SDS011;32840;52.516;13.294;2022-11-15T09:00:18;46.15;;;29.05;;
47089;SDS011;32840;52.516;13.294;2022-11-15T09:03:04;49.20;;;30.05;;
47089;SDS011;32840;52.516;13.294;2022-11-15T09:05:54;40.60;;;26.15;;
47089;SDS011;32840;52.516;13.294;2022-11-15T09:08:40;38.97;;;25.55;;
47089;SDS011;32840;52.516;13.294;2022-11-15T09:11:25;48.10;;;29.48;;
47089;SDS011;32840;52.516;13.294;2022-11-15T09:14:11;40.13;;;24.63;;
47089;SDS011;32840;52.516;13.294;2022-11-15T09:16:56;38.90;;;26.17;;
47089;SDS011;32840;52.516;13.294;2022-11-15T09:19:42;39.38;;;25.40;;
47089;SDS011;32840;52.516;13.294;2022-11-15T09:22:27;48.10;;;29.17;;
47089;SDS011;32840;52.516;13.294;2022-11-15T09:25:12;39.55;;;24.25;;
47089;SDS011;32840;52.516;13.294;2022-11-15T09:27:57;37.60;;;24.60;;
47089;SDS011;32840;52.516;13.294;2022-11-15T09:30:42;37.08;;;23.83;;
47089;SDS011;32840;52.516;13.294;2022-11-15T09:33:27;38.13;;;23.95;;
47089;SDS011;32840;52.516;13.294;2022-11-15T09:36:12;37.78;;;23.95;;
47089;SDS011;32840;52.516;13.294;2022-11-15T09:38:57;34.78;;;22.10;;
47089;SDS011;32840;52.516;13.294;2022-11-15T09:42:04;36.70;;;23.00;;
47089;SDS011;32840;52.516;13.294;2022-11-15T09:51:38;31.23;;;20.05;;
47089;SDS011;32840;52.516;13.294;2022-11-15T09:54:35;35.08;;;22.75;;
47089;SDS011;32840;52.516;13.294;2022-11-15T10:00:47;35.78;;;21.10;;
47089;SDS011;32840;52.516;13.294;2022-11-15T10:03:37;33.53;;;21.13;;
47089;SDS011;32840;52.516;13.294;2022-11-15T10:06:26;33.42;;;21.27;;
47089;SDS011;32840;52.516;13.294;2022-11-15T10:09:13;36.03;;;24.27;;
47089;SDS011;32840;52.516;13.294;2022-11-15T10:12:21;40.55;;;28.80;;
47089;SDS011;32840;52.516;13.294;2022-11-15T10:15:11;34.15;;;20.63;;
47089;SDS011;32840;52.516;13.294;2022-11-15T10:18:18;30.52;;;19.83;;
47089;SDS011;32840;52.516;13.294;2022-11-15T10:24:44;29.23;;;19.88;;
47089;SDS011;32840;52.516;13.294;2022-11-15T10:27:29;32.92;;;20.40;;
47089;SDS011;32840;52.516;13.294;2022-11-15T10:30:16;28.90;;;19.70;;
47089;SDS011;32840;52.516;13.294;2022-11-15T10:33:17;31.67;;;20.05;;
47089;SDS011;32840;52.516;13.294;2022-11-15T10:39:03;32.33;;;21.23;;
47089;SDS011;32840;52.516;13.294;2022-11-15T10:41:48;29.27;;;19.63;;
47089;SDS011;32840;52.516;13.294;2022-11-15T10:44:34;30.35;;;19.38;;
47089;SDS011;32840;52.516;13.294;2022-11-15T10:47:28;28.38;;;19.17;;
47089;SDS011;32840;52.516;13.294;2022-11-15T10:50:28;36.33;;;24.13;;
47089;SDS011;32840;52.516;13.294;2022-11-15T10:53:38;35.47;;;22.60;;
47089;SDS011;32840;52.516;13.294;2022-11-15T10:56:29;34.38;;;21.25;;
47089;SDS011;32840;52.516;13.294;2022-11-15T10:59:16;30.85;;;20.20;;
47089;SDS011;32840;52.516;13.294;2022-11-15T11:05:28;31.63;;;19.77;;
47089;SDS011;32840;52.516;13.294;2022-11-15T11:08:24;30.98;;;19.77;;
47089;SDS011;32840;52.516;13.294;2022-11-15T11:11:09;29.83;;;19.92;;
47089;SDS011;32840;52.516;13.294;2022-11-15T11:13:54;29.27;;;19.88;;
47089;SDS011;32840;52.516;13.294;2022-11-15T11:16:44;26.63;;;18.55;;
47089;SDS011;32840;52.516;13.294;2022-11-15T11:19:51;29.55;;;19.27;;
47089;SDS011;32840;52.516;13.294;2022-11-15T11:35:55;30.05;;;19.30;;
47089;SDS011;32840;52.516;13.294;2022-11-15T11:39:05;30.10;;;19.40;;
47089;SDS011;32840;52.516;13.294;2022-11-15T11:51:45;33.95;;;23.48;;
47089;SDS011;32840;52.516;13.294;2022-11-15T11:57:53;31.33;;;20.30;;
47089;SDS011;32840;52.516;13.294;2022-11-15T12:00:52;29.80;;;18.98;;
47089;SDS011;32840;52.516;13.294;2022-11-15T12:03:57;32.50;;;20.90;;
47089;SDS011;32840;52.516;13.294;2022-11-15T12:06:50;26.15;;;19.13;;
47089;SDS011;32840;52.516;13.294;2022-11-15T12:09:41;32.85;;;21.63;;
47089;SDS011;32840;52.516;13.294;2022-11-15T12:12:34;25.85;;;18.38;;
47089;SDS011;32840;52.516;13.294;2022-11-15T12:15:43;32.97;;;21.63;;
47089;SDS011;32840;52.516;13.294;2022-11-15T12:18:32;28.77;;;19.83;;
47089;SDS011;32840;52.516;13.294;2022-11-15T12:21:21;27.77;;;17.63;;
47089;SDS011;32840;52.516;13.294;2022-11-15T12:24:29;29.10;;;18.20;;
47089;SDS011;32840;52.516;13.294;2022-11-15T12:27:39;28.02;;;18.23;;
47089;SDS011;32840;52.516;13.294;2022-11-15T12:30:51;24.73;;;17.75;;
47089;SDS011;32840;52.516;13.294;2022-11-15T12:33:40;26.15;;;18.15;;
47089;SDS011;32840;52.516;13.294;2022-11-15T12:36:37;25.45;;;17.30;;
47089;SDS011;32840;52.516;13.294;2022-11-15T12:40:03;25.38;;;16.30;;
47089;SDS011;32840;52.516;13.294;2022-11-15T12:43:34;24.20;;;16.88;;
47089;SDS011;32840;52.516;13.294;2022-11-15T12:52:07;21.38;;;15.32;;
47089;SDS011;32840;52.516;13.294;2022-11-15T12:54:56;25.35;;;16.58;;
47089;SDS011;32840;52.516;13.294;2022-11-15T12:57:43;26.98;;;16.48;;
47089;SDS011;32840;52.516;13.294;2022-11-15T13:03:17;24.52;;;15.30;;
47089;SDS011;32840;52.516;13.294;2022-11-15T13:06:04;23.40;;;16.45;;
47089;SDS011;32840;52.516;13.294;2022-11-15T13:08:51;23.55;;;15.60;;
47089;SDS011;32840;52.516;13.294;2022-11-15T13:11:46;25.95;;;16.50;;
47089;SDS011;32840;52.516;13.294;2022-11-15T13:17:29;23.25;;;16.42;;
47089;SDS011;32840;52.516;13.294;2022-11-15T13:20:30;25.33;;;17.50;;
47089;SDS011;32840;52.516;13.294;2022-11-15T13:23:16;29.00;;;17.35;;
47089;SDS011;32840;52.516;13.294;2022-11-15T13:26:04;33.15;;;18.95;;
47089;SDS011;32840;52.516;13.294;2022-11-15T13:28:58;23.80;;;17.80;;
47089;SDS011;32840;52.516;13.294;2022-11-15T13:31:45;28.65;;;18.25;;
47089;SDS011;32840;52.516;13.294;2022-11-15T13:34:31;29.60;;;19.70;;
47089;SDS011;32840;52.516;13.294;2022-11-15T13:37:39;27.70;;;18.33;;
47089;SDS011;32840;52.516;13.294;2022-11-15T13:40:26;25.00;;;17.63;;
47089;SDS011;32840;52.516;13.294;2022-11-15T13:51:40;27.52;;;17.27;;
47089;SDS011;32840;52.516;13.294;2022-11-15T13:54:40;26.52;;;17.55;;
47089;SDS011;32840;52.516;13.294;2022-11-15T13:57:59;26.67;;;18.75;;
47089;SDS011;32840;52.516;13.294;2022-11-15T14:00:59;28.70;;;18.63;;
47089;SDS011;32840;52.516;13.294;2022-11-15T14:03:55;30.63;;;20.73;;
47089;SDS011;32840;52.516;13.294;2022-11-15T14:06:55;27.15;;;18.75;;
47089;SDS011;32840;52.516;13.294;2022-11-15T14:09:41;32.83;;;20.58;;
47089;SDS011;32840;52.516;13.294;2022-11-15T14:12:33;31.92;;;19.80;;
47089;SDS011;32840;52.516;13.294;2022-11-15T14:18:38;30.45;;;20.02;;
47089;SDS011;32840;52.516;13.294;2022-11-15T14:21:36;35.20;;;20.48;;
47089;SDS011;32840;52.516;13.294;2022-11-15T14:24:21;34.47;;;21.23;;
47089;SDS011;32840;52.516;13.294;2022-11-15T14:27:16;35.67;;;20.48;;
47089;SDS011;32840;52.516;13.294;2022-11-15T14:30:02;31.55;;;20.45;;
47089;SDS011;32840;52.516;13.294;2022-11-15T14:32:48;34.15;;;21.38;;
47089;SDS011;32840;52.516;13.294;2022-11-15T14:35:37;28.45;;;19.73;;
47089;SDS011;32840;52.516;13.294;2022-11-15T14:38:23;33.78;;;22.13;;
47089;SDS011;32840;52.516;13.294;2022-11-15T14:41:17;32.97;;;21.48;;
47089;SDS011;32840;52.516;13.294;2022-11-15T14:44:10;28.70;;;19.27;;
47089;SDS011;32840;52.516;13.294;2022-11-15T14:46:56;32.95;;;21.20;;
47089;SDS011;32840;52.516;13.294;2022-11-15T14:49:41;29.73;;;19.23;;
47089;SDS011;32840;52.516;13.294;2022-11-15T14:52:27;32.47;;;20.42;;
47089;SDS011;32840;52.516;13.294;2022-11-15T14:55:20;29.55;;;19.55;;
47089;SDS011;32840;52.516;13.294;2022-11-15T14:58:10;27.58;;;18.40;;
47089;SDS011;32840;52.516;13.294;2022-11-15T15:00:55;30.23;;;19.67;;
47089;SDS011;32840;52.516;13.294;2022-11-15T15:03:39;29.17;;;18.80;;
47089;SDS011;32840;52.516;13.294;2022-11-15T15:06:24;30.00;;;19.60;;
47089;SDS011;32840;52.516;13.294;2022-11-15T15:09:10;32.35;;;19.42;;
47089;SDS011;32840;52.516;13.294;2022-11-15T15:11:55;49.25;;;29.52;;
47089;SDS011;32840;52.516;13.294;2022-11-15T15:14:47;37.22;;;22.85;;
47089;SDS011;32840;52.516;13.294;2022-11-15T15:17:33;36.85;;;22.63;;
47089;SDS011;32840;52.516;13.294;2022-11-15T15:20:18;34.78;;;23.08;;
47089;SDS011;32840;52.516;13.294;2022-11-15T15:23:02;40.55;;;23.92;;
47089;SDS011;32840;52.516;13.294;2022-11-15T15:25:48;33.33;;;21.52;;
47089;SDS011;32840;52.516;13.294;2022-11-15T15:28:32;29.58;;;19.38;;
47089;SDS011;32840;52.516;13.294;2022-11-15T15:31:19;29.73;;;20.60;;
47089;SDS011;32840;52.516;13.294;2022-11-15T15:34:04;28.95;;;19.65;;
47089;SDS011;32840;52.516;13.294;2022-11-15T15:36:49;31.80;;;20.30;;
47089;SDS011;32840;52.516;13.294;2022-11-15T15:39:34;31.77;;;22.27;;
47089;SDS011;32840;52.516;13.294;2022-11-15T15:42:19;27.23;;;19.13;;
47089;SDS011;32840;52.516;13.294;2022-11-15T15:45:05;28.60;;;19.95;;
47089;SDS011;32840;52.516;13.294;2022-11-15T15:47:50;28.60;;;19.55;;
47089;SDS011;32840;52.516;13.294;2022-11-15T15:50:36;25.05;;;18.15;;
47089;SDS011;32840;52.516;13.294;2022-11-15T15:53:21;30.02;;;19.38;;
47089;SDS011;32840;52.516;13.294;2022-11-15T15:56:05;28.27;;;19.42;;
47089;SDS011;32840;52.516;13.294;2022-11-15T15:58:52;28.25;;;19.73;;
47089;SDS011;32840;52.516;13.294;2022-11-15T16:01:37;28.02;;;19.38;;
47089;SDS011;32840;52.516;13.294;2022-11-15T16:04:22;31.98;;;19.95;;
47089;SDS011;32840;52.516;13.294;2022-11-15T16:07:12;30.92;;;20.83;;
47089;SDS011;32840;52.516;13.294;2022-11-15T16:13:01;30.55;;;20.40;;
47089;SDS011;32840;52.516;13.294;2022-11-15T16:15:47;31.20;;;21.45;;
47089;SDS011;32840;52.516;13.294;2022-11-15T16:18:36;32.75;;;21.92;;
47089;SDS011;32840;52.516;13.294;2022-11-15T16:21:21;29.85;;;20.65;;
47089;SDS011;32840;52.516;13.294;2022-11-15T16:24:06;28.73;;;19.80;;
47089;SDS011;32840;52.516;13.294;2022-11-15T16:26:51;33.92;;;21.42;;
47089;SDS011;32840;52.516;13.294;2022-11-15T16:29:36;38.08;;;21.92;;
47089;SDS011;32840;52.516;13.294;2022-11-15T16:32:21;32.47;;;21.40;;
47089;SDS011;32840;52.516;13.294;2022-11-15T16:35:10;31.98;;;21.25;;
47089;SDS011;32840;52.516;13.294;2022-11-15T16:37:56;30.48;;;20.15;;
47089;SDS011;32840;52.516;13.294;2022-11-15T16:40:41;31.88;;;21.27;;
47089;SDS011;32840;52.516;13.294;2022-11-15T16:43:26;34.53;;;22.65;;
47089;SDS011;32840;52.516;13.294;2022-11-15T16:46:17;34.38;;;21.77;;
47089;SDS011;32840;52.516;13.294;2022-11-15T16:49:04;33.92;;;21.90;;
47089;SDS011;32840;52.516;13.294;2022-11-15T16:51:49;38.95;;;22.50;;
47089;SDS011;32840;52.516;13.294;2022-11-15T16:54:33;37.35;;;22.50;;
47089;SDS011;32840;52.516;13.294;2022-11-15T16:57:18;34.70;;;22.55;;
47089;SDS011;32840;52.516;13.294;2022-11-15T17:00:04;36.45;;;23.25;;
47089;SDS011;32840;52.516;13.294;2022-11-15T17:02:49;32.92;;;22.92;;
47089;SDS011;32840;52.516;13.294;2022-11-15T17:05:35;33.70;;;22.92;;
47089;SDS011;32840;52.516;13.294;2022-11-15T17:08:20;38.42;;;25.27;;
47089;SDS011;32840;52.516;13.294;2022-11-15T17:11:07;34.05;;;22.77;;
47089;SDS011;32840;52.516;13.294;2022-11-15T17:13:56;37.55;;;24.80;;
47089;SDS011;32840;52.516;13.294;2022-11-15T17:16:42;42.35;;;24.85;;
47089;SDS011;32840;52.516;13.294;2022-11-15T17:19:27;35.25;;;24.95;;
47089;SDS011;32840;52.516;13.294;2022-11-15T17:22:12;34.88;;;23.52;;
47089;SDS011;32840;52.516;13.294;2022-11-15T17:24:57;40.42;;;26.13;;
47089;SDS011;32840;52.516;13.294;2022-11-15T17:27:42;39.28;;;26.38;;
47089;SDS011;32840;52.516;13.294;2022-11-15T17:30:27;39.63;;;26.55;;
47089;SDS011;32840;52.516;13.294;2022-11-15T17:33:12;45.05;;;29.10;;
47089;SDS011;32840;52.516;13.294;2022-11-15T17:35:57;40.47;;;28.55;;
47089;SDS011;32840;52.516;13.294;2022-11-15T17:38:44;40.53;;;28.48;;
47089;SDS011;32840;52.516;13.294;2022-11-15T17:41:33;42.08;;;28.65;;
47089;SDS011;32840;52.516;13.294;2022-11-15T17:44:18;42.65;;;29.45;;
47089;SDS011;32840;52.516;13.294;2022-11-15T17:47:03;45.35;;;30.45;;
47089;SDS011;32840;52.516;13.294;2022-11-15T17:49:48;50.08;;;30.40;;
47089;SDS011;32840;52.516;13.294;2022-11-15T17:52:32;44.85;;;31.88;;
47089;SDS011;32840;52.516;13.294;2022-11-15T17:55:17;48.33;;;31.60;;
47089;SDS011;32840;52.516;13.294;2022-11-15T17:58:02;50.03;;;32.95;;
47089;SDS011;32840;52.516;13.294;2022-11-15T18:00:47;50.35;;;32.50;;